ELM weather

Elmira Corning Regional Airport
Elmira/Corning, New York, United States

Public forecast

Using degrees Fahrenheit for public forecast. Weather courtesy of forecast.io.

METAR (pilot weather report)

Retrieved 2019/04/24 16:53 UTC (1 hour ago):

KELM 241653Z 31014G22KT 10SM CLR 14/02 A2986 RMK AO2 SLP111 T01440022

TAF (pilot weather forecast)

Retrieved 2019/04/24 12:36 UTC (5 hours ago):

TAF KELM 241134Z 2412/2512 27010G18KT P6SM OVC025 FM241500 30012G20KT P6SM BKN035 FM242300 32005KT P6SM SCT040 FM250900 VRB03KT P6SM SCT003